sensor_id;sensor_type;location;lat;lon;timestamp;temperature;humidity
1025;DHT22;501;48.214;11.350;2023-07-31T00:00:42;17.30;45.70
1025;DHT22;501;48.214;11.350;2023-07-31T00:03:08;17.20;46.70
1025;DHT22;501;48.214;11.350;2023-07-31T00:05:34;17.20;46.70
1025;DHT22;501;48.214;11.350;2023-07-31T00:07:59;17.10;45.90
1025;DHT22;501;48.214;11.350;2023-07-31T00:10:25;17.00;46.40
1025;DHT22;501;48.214;11.350;2023-07-31T00:12:50;17.00;46.50
1025;DHT22;501;48.214;11.350;2023-07-31T00:15:16;16.90;46.50
1025;DHT22;501;48.214;11.350;2023-07-31T00:17:41;16.90;46.50
1025;DHT22;501;48.214;11.350;2023-07-31T00:20:07;16.90;47.50
1025;DHT22;501;48.214;11.350;2023-07-31T00:22:33;16.80;47.70
1025;DHT22;501;48.214;11.350;2023-07-31T00:24:59;16.80;48.60
1025;DHT22;501;48.214;11.350;2023-07-31T00:27:25;16.80;48.00
1025;DHT22;501;48.214;11.350;2023-07-31T00:29:51;16.80;47.80
1025;DHT22;501;48.214;11.350;2023-07-31T00:32:16;16.80;47.10
1025;DHT22;501;48.214;11.350;2023-07-31T00:34:42;16.80;47.30
1025;DHT22;501;48.214;11.350;2023-07-31T00:37:07;16.90;47.80
1025;DHT22;501;48.214;11.350;2023-07-31T00:39:34;16.90;47.50
1025;DHT22;501;48.214;11.350;2023-07-31T00:41:59;16.90;47.30
1025;DHT22;501;48.214;11.350;2023-07-31T00:44:25;16.90;46.90
1025;DHT22;501;48.214;11.350;2023-07-31T00:46:51;16.90;47.40
1025;DHT22;501;48.214;11.350;2023-07-31T00:49:17;16.80;47.20
1025;DHT22;501;48.214;11.350;2023-07-31T00:51:43;16.80;48.30
1025;DHT22;501;48.214;11.350;2023-07-31T00:54:09;16.80;47.40
1025;DHT22;501;48.214;11.350;2023-07-31T00:56:35;16.80;47.10
1025;DHT22;501;48.214;11.350;2023-07-31T00:59:00;16.80;48.40
1025;DHT22;501;48.214;11.350;2023-07-31T01:01:26;16.80;49.50
1025;DHT22;501;48.214;11.350;2023-07-31T01:03:53;16.80;48.30
1025;DHT22;501;48.214;11.350;2023-07-31T01:06:40;16.80;46.90
1025;DHT22;501;48.214;11.350;2023-07-31T01:09:20;16.80;47.10
1025;DHT22;501;48.214;11.350;2023-07-31T01:11:52;16.90;46.60
1025;DHT22;501;48.214;11.350;2023-07-31T01:14:18;16.90;47.40
1025;DHT22;501;48.214;11.350;2023-07-31T01:16:44;16.90;47.80
1025;DHT22;501;48.214;11.350;2023-07-31T01:19:11;16.90;48.00
1025;DHT22;501;48.214;11.350;2023-07-31T01:24:36;17.00;47.50
1025;DHT22;501;48.214;11.350;2023-07-31T01:27:12;17.00;47.30
1025;DHT22;501;48.214;11.350;2023-07-31T01:30:16;17.00;46.90
1025;DHT22;501;48.214;11.350;2023-07-31T01:32:43;17.00;47.30
1025;DHT22;501;48.214;11.350;2023-07-31T01:35:12;17.00;47.10
1025;DHT22;501;48.214;11.350;2023-07-31T01:37:37;17.00;46.90
1025;DHT22;501;48.214;11.350;2023-07-31T01:40:04;17.00;46.70
1025;DHT22;501;48.214;11.350;2023-07-31T01:42:30;17.00;47.40
1025;DHT22;501;48.214;11.350;2023-07-31T01:44:56;17.00;48.50
1025;DHT22;501;48.214;11.350;2023-07-31T01:47:21;17.00;49.10
1025;DHT22;501;48.214;11.350;2023-07-31T01:49:48;17.00;47.90
1025;DHT22;501;48.214;11.350;2023-07-31T01:52:14;17.00;47.10
1025;DHT22;501;48.214;11.350;2023-07-31T01:54:40;17.00;46.50
1025;DHT22;501;48.214;11.350;2023-07-31T01:57:05;17.00;46.70
1025;DHT22;501;48.214;11.350;2023-07-31T01:59:31;17.00;46.60
1025;DHT22;501;48.214;11.350;2023-07-31T02:01:57;17.00;47.40
1025;DHT22;501;48.214;11.350;2023-07-31T02:04:22;17.00;47.80
1025;DHT22;501;48.214;11.350;2023-07-31T02:06:48;17.00;48.60
1025;DHT22;501;48.214;11.350;2023-07-31T02:09:13;17.00;47.90
1025;DHT22;501;48.214;11.350;2023-07-31T02:11:39;17.00;47.90
1025;DHT22;501;48.214;11.350;2023-07-31T02:14:05;17.00;48.60
1025;DHT22;501;48.214;11.350;2023-07-31T02:16:30;17.00;49.30
1025;DHT22;501;48.214;11.350;2023-07-31T02:18:56;17.00;49.40
1025;DHT22;501;48.214;11.350;2023-07-31T02:21:21;17.00;49.30
1025;DHT22;501;48.214;11.350;2023-07-31T02:23:47;17.00;49.30
1025;DHT22;501;48.214;11.350;2023-07-31T02:26:13;17.00;49.10
1025;DHT22;501;48.214;11.350;2023-07-31T02:28:38;16.90;49.00
1025;DHT22;501;48.214;11.350;2023-07-31T02:31:04;16.90;49.40
1025;DHT22;501;48.214;11.350;2023-07-31T02:33:29;16.90;49.20
1025;DHT22;501;48.214;11.350;2023-07-31T02:35:55;16.90;49.30
1025;DHT22;501;48.214;11.350;2023-07-31T02:38:21;16.90;49.50
1025;DHT22;501;48.214;11.350;2023-07-31T02:40:46;16.90;49.20
1025;DHT22;501;48.214;11.350;2023-07-31T02:43:13;16.80;49.30
1025;DHT22;501;48.214;11.350;2023-07-31T02:45:39;16.80;49.70
1025;DHT22;501;48.214;11.350;2023-07-31T02:48:04;16.80;49.60
1025;DHT22;501;48.214;11.350;2023-07-31T02:50:30;16.70;49.40
1025;DHT22;501;48.214;11.350;2023-07-31T02:52:57;16.70;50.00
1025;DHT22;501;48.214;11.350;2023-07-31T02:55:23;16.60;50.20
1025;DHT22;501;48.214;11.350;2023-07-31T02:57:48;16.50;50.60
1025;DHT22;501;48.214;11.350;2023-07-31T03:00:14;16.50;50.90
1025;DHT22;501;48.214;11.350;2023-07-31T03:02:39;16.40;51.00
1025;DHT22;501;48.214;11.350;2023-07-31T03:05:05;16.40;51.20
1025;DHT22;501;48.214;11.350;2023-07-31T03:07:31;16.30;51.90
1025;DHT22;501;48.214;11.350;2023-07-31T03:09:56;16.30;52.70
1025;DHT22;501;48.214;11.350;2023-07-31T03:12:22;16.20;52.80
1025;DHT22;501;48.214;11.350;2023-07-31T03:14:48;16.20;53.60
1025;DHT22;501;48.214;11.350;2023-07-31T03:17:13;16.20;53.40
1025;DHT22;501;48.214;11.350;2023-07-31T03:19:39;16.10;53.50
1025;DHT22;501;48.214;11.350;2023-07-31T03:22:05;16.10;54.00
1025;DHT22;501;48.214;11.350;2023-07-31T03:24:30;16.00;54.50
1025;DHT22;501;48.214;11.350;2023-07-31T03:26:56;16.10;54.50
1025;DHT22;501;48.214;11.350;2023-07-31T03:29:22;16.00;55.60
1025;DHT22;501;48.214;11.350;2023-07-31T03:31:47;16.00;55.90
1025;DHT22;501;48.214;11.350;2023-07-31T03:34:13;16.00;56.90
1025;DHT22;501;48.214;11.350;2023-07-31T03:36:38;16.00;56.70
1025;DHT22;501;48.214;11.350;2023-07-31T03:39:04;16.00;56.90
1025;DHT22;501;48.214;11.350;2023-07-31T03:41:30;16.00;56.30
1025;DHT22;501;48.214;11.350;2023-07-31T03:43:55;16.00;56.20
1025;DHT22;501;48.214;11.350;2023-07-31T03:46:24;16.00;56.70
1025;DHT22;501;48.214;11.350;2023-07-31T03:48:50;16.00;56.30
1025;DHT22;501;48.214;11.350;2023-07-31T03:51:16;16.00;56.70
1025;DHT22;501;48.214;11.350;2023-07-31T03:53:43;16.10;56.30
1025;DHT22;501;48.214;11.350;2023-07-31T03:56:09;16.10;56.30
1025;DHT22;501;48.214;11.350;2023-07-31T03:58:34;16.10;56.00
1025;DHT22;501;48.214;11.350;2023-07-31T04:01:01;16.10;56.70
1025;DHT22;501;48.214;11.350;2023-07-31T04:03:27;16.20;56.10
1025;DHT22;501;48.214;11.350;2023-07-31T04:05:54;16.20;56.20
1025;DHT22;501;48.214;11.350;2023-07-31T04:08:21;16.20;55.90
1025;DHT22;501;48.214;11.350;2023-07-31T04:10:47;16.20;56.00
1025;DHT22;501;48.214;11.350;2023-07-31T04:13:13;16.20;55.60
1025;DHT22;501;48.214;11.350;2023-07-31T04:15:38;16.20;56.10
1025;DHT22;501;48.214;11.350;2023-07-31T04:18:06;16.20;55.60
1025;DHT22;501;48.214;11.350;2023-07-31T04:20:31;16.30;55.30
1025;DHT22;501;48.214;11.350;2023-07-31T04:22:57;16.30;54.80
1025;DHT22;501;48.214;11.350;2023-07-31T04:25:22;16.30;55.30
1025;DHT22;501;48.214;11.350;2023-07-31T04:27:48;16.30;55.40
1025;DHT22;501;48.214;11.350;2023-07-31T04:30:14;16.30;55.40
1025;DHT22;501;48.214;11.350;2023-07-31T04:32:39;16.30;54.80
1025;DHT22;501;48.214;11.350;2023-07-31T04:35:05;16.30;54.70
1025;DHT22;501;48.214;11.350;2023-07-31T04:37:31;16.30;54.70
1025;DHT22;501;48.214;11.350;2023-07-31T04:39:57;16.30;54.70
1025;DHT22;501;48.214;11.350;2023-07-31T04:42:22;16.20;54.60
1025;DHT22;501;48.214;11.350;2023-07-31T04:44:48;16.30;54.70
1025;DHT22;501;48.214;11.350;2023-07-31T04:47:14;16.30;54.70
1025;DHT22;501;48.214;11.350;2023-07-31T04:49:39;16.30;54.70
1025;DHT22;501;48.214;11.350;2023-07-31T04:52:05;16.30;54.70
1025;DHT22;501;48.214;11.350;2023-07-31T04:54:31;16.30;54.70
1025;DHT22;501;48.214;11.350;2023-07-31T04:56:56;16.20;54.60
1025;DHT22;501;48.214;11.350;2023-07-31T04:59:22;16.20;54.60
1025;DHT22;501;48.214;11.350;2023-07-31T05:01:48;16.30;54.70
1025;DHT22;501;48.214;11.350;2023-07-31T05:04:13;16.30;54.70
1025;DHT22;501;48.214;11.350;2023-07-31T05:06:40;16.30;54.70
1025;DHT22;501;48.214;11.350;2023-07-31T05:09:05;16.30;54.70
1025;DHT22;501;48.214;11.350;2023-07-31T05:11:31;16.30;54.70
1025;DHT22;501;48.214;11.350;2023-07-31T05:13:56;16.40;54.80
1025;DHT22;501;48.214;11.350;2023-07-31T05:16:22;16.50;54.90
1025;DHT22;501;48.214;11.350;2023-07-31T05:18:47;16.50;54.90
1025;DHT22;501;48.214;11.350;2023-07-31T05:21:13;16.60;55.00
1025;DHT22;501;48.214;11.350;2023-07-31T05:23:39;16.70;55.10
1025;DHT22;501;48.214;11.350;2023-07-31T05:26:05;16.80;55.20
1025;DHT22;501;48.214;11.350;2023-07-31T05:28:31;16.90;55.90
1025;DHT22;501;48.214;11.350;2023-07-31T05:31:01;16.90;56.00
1025;DHT22;501;48.214;11.350;2023-07-31T05:33:27;17.10;56.20
1025;DHT22;501;48.214;11.350;2023-07-31T05:35:53;17.20;55.50
1025;DHT22;501;48.214;11.350;2023-07-31T05:38:18;17.30;54.90
1025;DHT22;501;48.214;11.350;2023-07-31T05:40:44;17.40;53.80
1025;DHT22;501;48.214;11.350;2023-07-31T05:43:10;17.50;53.20
1025;DHT22;501;48.214;11.350;2023-07-31T05:45:36;17.50;53.50
1025;DHT22;501;48.214;11.350;2023-07-31T05:48:02;17.60;54.30
1025;DHT22;501;48.214;11.350;2023-07-31T05:50:28;17.70;50.50
1025;DHT22;501;48.214;11.350;2023-07-31T05:52:53;17.70;51.60
1025;DHT22;501;48.214;11.350;2023-07-31T05:55:19;17.80;49.90
1025;DHT22;501;48.214;11.350;2023-07-31T05:57:45;17.80;48.60
1025;DHT22;501;48.214;11.350;2023-07-31T06:00:12;17.90;47.90
1025;DHT22;501;48.214;11.350;2023-07-31T06:02:38;17.90;47.30
1025;DHT22;501;48.214;11.350;2023-07-31T06:05:04;18.00;47.40
1025;DHT22;501;48.214;11.350;2023-07-31T06:07:31;18.10;46.80
1025;DHT22;501;48.214;11.350;2023-07-31T06:09:57;18.20;47.30
1025;DHT22;501;48.214;11.350;2023-07-31T06:12:28;18.20;47.60
1025;DHT22;501;48.214;11.350;2023-07-31T06:14:54;18.30;46.00
1025;DHT22;501;48.214;11.350;2023-07-31T06:17:20;18.30;46.10
1025;DHT22;501;48.214;11.350;2023-07-31T06:19:46;18.30;46.70
1025;DHT22;501;48.214;11.350;2023-07-31T06:22:12;18.30;46.00
1025;DHT22;501;48.214;11.350;2023-07-31T06:24:38;18.30;46.30
1025;DHT22;501;48.214;11.350;2023-07-31T06:27:03;18.40;46.80
1025;DHT22;501;48.214;11.350;2023-07-31T06:29:29;18.40;45.40
1025;DHT22;501;48.214;11.350;2023-07-31T06:31:55;18.40;45.60
1025;DHT22;501;48.214;11.350;2023-07-31T06:34:21;18.50;45.20
1025;DHT22;501;48.214;11.350;2023-07-31T06:36:46;18.50;45.90
1025;DHT22;501;48.214;11.350;2023-07-31T06:39:12;18.50;45.60
1025;DHT22;501;48.214;11.350;2023-07-31T06:41:38;18.60;45.80
1025;DHT22;501;48.214;11.350;2023-07-31T06:44:04;18.60;45.80
1025;DHT22;501;48.214;11.350;2023-07-31T06:46:29;18.70;45.80
1025;DHT22;501;48.214;11.350;2023-07-31T06:48:55;18.70;44.80
1025;DHT22;501;48.214;11.350;2023-07-31T06:51:21;18.80;45.40
1025;DHT22;501;48.214;11.350;2023-07-31T06:53:46;18.90;44.20
1025;DHT22;501;48.214;11.350;2023-07-31T06:56:12;19.00;45.60
1025;DHT22;501;48.214;11.350;2023-07-31T06:58:38;19.10;45.30
1025;DHT22;501;48.214;11.350;2023-07-31T07:01:03;19.10;45.20
1025;DHT22;501;48.214;11.350;2023-07-31T07:03:29;19.20;44.20
1025;DHT22;501;48.214;11.350;2023-07-31T07:08:28;19.30;43.00
1025;DHT22;501;48.214;11.350;2023-07-31T07:10:54;19.40;44.50
1025;DHT22;501;48.214;11.350;2023-07-31T07:13:19;19.50;43.40
1025;DHT22;501;48.214;11.350;2023-07-31T07:15:49;19.60;41.70
1025;DHT22;501;48.214;11.350;2023-07-31T07:18:15;19.80;41.90
1025;DHT22;501;48.214;11.350;2023-07-31T07:20:46;19.80;43.30
1025;DHT22;501;48.214;11.350;2023-07-31T07:23:12;19.90;40.80
1025;DHT22;501;48.214;11.350;2023-07-31T07:25:38;20.00;41.90
1025;DHT22;501;48.214;11.350;2023-07-31T07:28:04;20.10;41.90
1025;DHT22;501;48.214;11.350;2023-07-31T07:30:29;20.10;40.20
1025;DHT22;501;48.214;11.350;2023-07-31T07:32:55;20.20;41.50
1025;DHT22;501;48.214;11.350;2023-07-31T07:35:20;20.30;42.00
1025;DHT22;501;48.214;11.350;2023-07-31T07:37:48;20.40;41.80
1025;DHT22;501;48.214;11.350;2023-07-31T07:40:15;20.50;39.10
1025;DHT22;501;48.214;11.350;2023-07-31T07:42:41;20.50;39.60
1025;DHT22;501;48.214;11.350;2023-07-31T07:45:07;20.50;40.60
1025;DHT22;501;48.214;11.350;2023-07-31T07:47:33;20.50;38.80
1025;DHT22;501;48.214;11.350;2023-07-31T07:49:58;20.50;39.40
1025;DHT22;501;48.214;11.350;2023-07-31T07:52:24;20.50;39.10
1025;DHT22;501;48.214;11.350;2023-07-31T07:54:50;20.50;40.60
1025;DHT22;501;48.214;11.350;2023-07-31T07:57:15;20.50;39.00
1025;DHT22;501;48.214;11.350;2023-07-31T07:59:41;20.50;36.90
1025;DHT22;501;48.214;11.350;2023-07-31T08:02:07;20.60;39.70
1025;DHT22;501;48.214;11.350;2023-07-31T08:04:35;20.50;37.80
1025;DHT22;501;48.214;11.350;2023-07-31T08:07:01;20.60;39.10
1025;DHT22;501;48.214;11.350;2023-07-31T08:09:27;20.80;39.70
1025;DHT22;501;48.214;11.350;2023-07-31T08:11:52;20.90;39.80
1025;DHT22;501;48.214;11.350;2023-07-31T08:14:18;21.10;37.80
1025;DHT22;501;48.214;11.350;2023-07-31T08:16:43;21.20;37.30
1025;DHT22;501;48.214;11.350;2023-07-31T08:19:09;21.30;35.20
1025;DHT22;501;48.214;11.350;2023-07-31T08:21:35;21.30;32.60
1025;DHT22;501;48.214;11.350;2023-07-31T08:24:00;21.20;32.90
1025;DHT22;501;48.214;11.350;2023-07-31T08:26:26;21.20;33.70
1025;DHT22;501;48.214;11.350;2023-07-31T08:28:51;21.20;33.50
1025;DHT22;501;48.214;11.350;2023-07-31T08:31:17;21.20;31.90
1025;DHT22;501;48.214;11.350;2023-07-31T08:33:43;21.10;33.80
1025;DHT22;501;48.214;11.350;2023-07-31T08:36:09;21.10;32.90
1025;DHT22;501;48.214;11.350;2023-07-31T08:38:35;21.00;32.80
1025;DHT22;501;48.214;11.350;2023-07-31T08:41:02;20.90;33.70
1025;DHT22;501;48.214;11.350;2023-07-31T08:43:28;20.90;33.30
1025;DHT22;501;48.214;11.350;2023-07-31T08:45:54;20.80;34.40
1025;DHT22;501;48.214;11.350;2023-07-31T08:48:22;20.70;35.00
1025;DHT22;501;48.214;11.350;2023-07-31T08:50:48;20.70;35.60
1025;DHT22;501;48.214;11.350;2023-07-31T08:53:13;20.70;34.70
1025;DHT22;501;48.214;11.350;2023-07-31T08:55:40;20.70;33.80
1025;DHT22;501;48.214;11.350;2023-07-31T08:58:05;20.70;34.20
1025;DHT22;501;48.214;11.350;2023-07-31T09:00:35;20.70;33.20
1025;DHT22;501;48.214;11.350;2023-07-31T09:03:22;20.80;32.90
1025;DHT22;501;48.214;11.350;2023-07-31T09:05:48;20.90;31.60
1025;DHT22;501;48.214;11.350;2023-07-31T09:08:18;20.90;32.30
1025;DHT22;501;48.214;11.350;2023-07-31T09:10:45;21.00;33.90
1025;DHT22;501;48.214;11.350;2023-07-31T09:13:12;21.10;34.40
1025;DHT22;501;48.214;11.350;2023-07-31T09:15:39;21.20;32.60
1025;DHT22;501;48.214;11.350;2023-07-31T09:18:06;21.30;32.70
1025;DHT22;501;48.214;11.350;2023-07-31T09:20:32;21.40;33.20
1025;DHT22;501;48.214;11.350;2023-07-31T09:23:10;21.40;33.50
1025;DHT22;501;48.214;11.350;2023-07-31T09:25:37;21.50;32.10
1025;DHT22;501;48.214;11.350;2023-07-31T09:28:04;21.60;31.50
1025;DHT22;501;48.214;11.350;2023-07-31T09:30:29;21.60;30.90
1025;DHT22;501;48.214;11.350;2023-07-31T09:33:03;21.60;31.30
1025;DHT22;501;48.214;11.350;2023-07-31T09:35:33;21.60;32.20
1025;DHT22;501;48.214;11.350;2023-07-31T09:38:07;21.60;31.30
1025;DHT22;501;48.214;11.350;2023-07-31T09:40:40;21.50;30.90
1025;DHT22;501;48.214;11.350;2023-07-31T09:43:10;21.50;32.10
1025;DHT22;501;48.214;11.350;2023-07-31T09:45:39;21.50;32.40
1025;DHT22;501;48.214;11.350;2023-07-31T09:48:12;21.50;30.80
1025;DHT22;501;48.214;11.350;2023-07-31T09:50:40;21.50;30.00
1025;DHT22;501;48.214;11.350;2023-07-31T09:53:06;21.50;32.10
1025;DHT22;501;48.214;11.350;2023-07-31T09:55:32;21.50;32.10
1025;DHT22;501;48.214;11.350;2023-07-31T09:57:58;21.50;32.10
1025;DHT22;501;48.214;11.350;2023-07-31T10:00:24;21.60;32.80
1025;DHT22;501;48.214;11.350;2023-07-31T10:02:53;21.60;31.90
1025;DHT22;501;48.214;11.350;2023-07-31T10:05:19;21.60;32.20
1025;DHT22;501;48.214;11.350;2023-07-31T10:07:52;21.70;33.10
1025;DHT22;501;48.214;11.350;2023-07-31T10:10:20;21.80;32.40
1025;DHT22;501;48.214;11.350;2023-07-31T10:12:48;21.80;31.70
1025;DHT22;501;48.214;11.350;2023-07-31T10:15:14;21.90;31.50
1025;DHT22;501;48.214;11.350;2023-07-31T10:17:40;21.90;30.80
1025;DHT22;501;48.214;11.350;2023-07-31T10:20:07;22.00;31.00
1025;DHT22;501;48.214;11.350;2023-07-31T10:22:33;22.00;31.40
1025;DHT22;501;48.214;11.350;2023-07-31T10:25:00;22.10;32.30
1025;DHT22;501;48.214;11.350;2023-07-31T10:27:26;22.30;31.30
1025;DHT22;501;48.214;11.350;2023-07-31T10:29:56;22.30;32.30
1025;DHT22;501;48.214;11.350;2023-07-31T10:32:22;22.40;29.70
1025;DHT22;501;48.214;11.350;2023-07-31T10:34:49;22.50;29.60
1025;DHT22;501;48.214;11.350;2023-07-31T10:37:29;22.50;31.30
1025;DHT22;501;48.214;11.350;2023-07-31T10:44:58;22.80;31.50
1025;DHT22;501;48.214;11.350;2023-07-31T10:47:24;22.90;30.10
1025;DHT22;501;48.214;11.350;2023-07-31T10:49:49;23.00;29.10
1025;DHT22;501;48.214;11.350;2023-07-31T10:52:20;23.00;28.30
1025;DHT22;501;48.214;11.350;2023-07-31T10:54:49;23.10;30.10
1025;DHT22;501;48.214;11.350;2023-07-31T10:57:20;23.10;29.70
1025;DHT22;501;48.214;11.350;2023-07-31T10:59:47;23.10;29.70
1025;DHT22;501;48.214;11.350;2023-07-31T11:02:26;23.20;29.60
1025;DHT22;501;48.214;11.350;2023-07-31T11:05:11;23.30;29.80
1025;DHT22;501;48.214;11.350;2023-07-31T11:07:49;23.30;28.90
1025;DHT22;501;48.214;11.350;2023-07-31T11:10:18;23.30;29.30
1025;DHT22;501;48.214;11.350;2023-07-31T11:12:45;23.30;30.00
1025;DHT22;501;48.214;11.350;2023-07-31T11:15:11;23.40;27.80
1025;DHT22;501;48.214;11.350;2023-07-31T11:17:40;23.50;28.20
1025;DHT22;501;48.214;11.350;2023-07-31T11:20:07;23.50;28.10
1025;DHT22;501;48.214;11.350;2023-07-31T11:22:35;23.50;29.50
1025;DHT22;501;48.214;11.350;2023-07-31T11:25:02;23.60;29.10
1025;DHT22;501;48.214;11.350;2023-07-31T11:27:29;23.70;28.30
1025;DHT22;501;48.214;11.350;2023-07-31T11:30:01;23.80;27.90
1025;DHT22;501;48.214;11.350;2023-07-31T11:32:27;24.00;28.50
1025;DHT22;501;48.214;11.350;2023-07-31T11:34:55;24.20;29.50
1025;DHT22;501;48.214;11.350;2023-07-31T11:37:22;24.40;27.90
1025;DHT22;501;48.214;11.350;2023-07-31T11:40:01;24.60;28.20
1025;DHT22;501;48.214;11.350;2023-07-31T11:42:26;24.80;28.00
1025;DHT22;501;48.214;11.350;2023-07-31T11:44:52;25.10;28.30
1025;DHT22;501;48.214;11.350;2023-07-31T11:47:18;25.40;28.00
1025;DHT22;501;48.214;11.350;2023-07-31T11:49:44;25.70;25.40
1025;DHT22;501;48.214;11.350;2023-07-31T11:52:10;25.90;27.20
1025;DHT22;501;48.214;11.350;2023-07-31T11:54:37;26.10;25.10
1025;DHT22;501;48.214;11.350;2023-07-31T11:57:03;26.20;26.70
1025;DHT22;501;48.214;11.350;2023-07-31T11:59:29;26.40;27.10
1025;DHT22;501;48.214;11.350;2023-07-31T12:01:55;26.70;24.50
1025;DHT22;501;48.214;11.350;2023-07-31T12:04:21;26.80;24.00
1025;DHT22;501;48.214;11.350;2023-07-31T12:06:47;27.10;26.40
1025;DHT22;501;48.214;11.350;2023-07-31T12:09:14;27.40;24.80
1025;DHT22;501;48.214;11.350;2023-07-31T12:11:44;27.70;23.70
1025;DHT22;501;48.214;11.350;2023-07-31T12:14:25;27.60;23.20
1025;DHT22;501;48.214;11.350;2023-07-31T12:16:59;27.50;24.00
1025;DHT22;501;48.214;11.350;2023-07-31T12:19:26;27.60;23.60
1025;DHT22;501;48.214;11.350;2023-07-31T12:21:56;27.70;23.80
1025;DHT22;501;48.214;11.350;2023-07-31T12:24:22;27.70;23.10
1025;DHT22;501;48.214;11.350;2023-07-31T12:26:48;27.60;24.10
1025;DHT22;501;48.214;11.350;2023-07-31T12:29:14;27.70;25.50
1025;DHT22;501;48.214;11.350;2023-07-31T12:31:41;28.00;24.50
1025;DHT22;501;48.214;11.350;2023-07-31T12:34:16;28.20;24.60
1025;DHT22;501;48.214;11.350;2023-07-31T12:36:43;28.20;22.80
1025;DHT22;501;48.214;11.350;2023-07-31T12:39:08;28.20;21.90
1025;DHT22;501;48.214;11.350;2023-07-31T12:41:34;28.20;23.10
1025;DHT22;501;48.214;11.350;2023-07-31T12:44:00;28.30;22.70
1025;DHT22;501;48.214;11.350;2023-07-31T12:46:25;28.50;23.30
1025;DHT22;501;48.214;11.350;2023-07-31T12:48:51;28.70;21.70
1025;DHT22;501;48.214;11.350;2023-07-31T12:51:16;28.80;23.00
1025;DHT22;501;48.214;11.350;2023-07-31T12:53:42;28.90;23.10
1025;DHT22;501;48.214;11.350;2023-07-31T12:56:08;29.20;24.20
1025;DHT22;501;48.214;11.350;2023-07-31T12:58:34;29.50;22.40
1025;DHT22;501;48.214;11.350;2023-07-31T13:00:59;29.50;21.70
1025;DHT22;501;48.214;11.350;2023-07-31T13:03:25;29.60;22.20
1025;DHT22;501;48.214;11.350;2023-07-31T13:05:50;29.70;21.50
1025;DHT22;501;48.214;11.350;2023-07-31T13:08:17;29.50;20.80
1025;DHT22;501;48.214;11.350;2023-07-31T13:10:43;29.20;22.00
1025;DHT22;501;48.214;11.350;2023-07-31T13:13:09;29.20;23.50
1025;DHT22;501;48.214;11.350;2023-07-31T13:15:35;29.10;21.90
1025;DHT22;501;48.214;11.350;2023-07-31T13:18:01;29.20;22.90
1025;DHT22;501;48.214;11.350;2023-07-31T13:20:27;29.30;21.30
1025;DHT22;501;48.214;11.350;2023-07-31T13:22:52;29.30;20.50
1025;DHT22;501;48.214;11.350;2023-07-31T13:25:18;29.10;21.70
1025;DHT22;501;48.214;11.350;2023-07-31T13:27:44;29.00;22.30
1025;DHT22;501;48.214;11.350;2023-07-31T13:30:10;28.90;21.90
1025;DHT22;501;48.214;11.350;2023-07-31T13:32:35;28.80;21.80
1025;DHT22;501;48.214;11.350;2023-07-31T13:35:08;28.90;24.00
1025;DHT22;501;48.214;11.350;2023-07-31T13:37:34;29.10;23.10
1025;DHT22;501;48.214;11.350;2023-07-31T13:40:00;29.50;22.00
1025;DHT22;501;48.214;11.350;2023-07-31T13:42:26;29.80;21.60
1025;DHT22;501;48.214;11.350;2023-07-31T13:44:53;30.10;21.70
1025;DHT22;501;48.214;11.350;2023-07-31T13:47:21;30.10;20.30
1025;DHT22;501;48.214;11.350;2023-07-31T13:49:47;29.70;20.20
1025;DHT22;501;48.214;11.350;2023-07-31T13:52:12;29.30;20.10
1025;DHT22;501;48.214;11.350;2023-07-31T13:54:38;28.90;20.60
1025;DHT22;501;48.214;11.350;2023-07-31T13:57:04;28.60;20.90
1025;DHT22;501;48.214;11.350;2023-07-31T13:59:30;28.20;21.00
1025;DHT22;501;48.214;11.350;2023-07-31T14:01:56;27.90;21.90
1025;DHT22;501;48.214;11.350;2023-07-31T14:04:21;27.60;22.60
1025;DHT22;501;48.214;11.350;2023-07-31T14:06:47;27.40;23.80
1025;DHT22;501;48.214;11.350;2023-07-31T14:09:13;27.30;23.50
1025;DHT22;501;48.214;11.350;2023-07-31T14:11:39;27.20;23.40
1025;DHT22;501;48.214;11.350;2023-07-31T14:14:05;27.00;22.80
1025;DHT22;501;48.214;11.350;2023-07-31T14:16:31;26.80;23.10
1025;DHT22;501;48.214;11.350;2023-07-31T14:18:56;26.70;23.40
1025;DHT22;501;48.214;11.350;2023-07-31T14:21:25;26.70;24.20
1025;DHT22;501;48.214;11.350;2023-07-31T14:23:51;26.60;24.10
1025;DHT22;501;48.214;11.350;2023-07-31T14:26:16;26.50;24.40
1025;DHT22;501;48.214;11.350;2023-07-31T14:28:42;26.60;25.60
1025;DHT22;501;48.214;11.350;2023-07-31T14:31:08;26.80;24.80
1025;DHT22;501;48.214;11.350;2023-07-31T14:33:33;27.20;25.20
1025;DHT22;501;48.214;11.350;2023-07-31T14:35:59;27.60;24.00
1025;DHT22;501;48.214;11.350;2023-07-31T14:38:25;27.90;24.80
1025;DHT22;501;48.214;11.350;2023-07-31T14:40:51;28.00;23.30
1025;DHT22;501;48.214;11.350;2023-07-31T14:43:17;28.00;23.20
1025;DHT22;501;48.214;11.350;2023-07-31T14:45:42;27.90;22.20
1025;DHT22;501;48.214;11.350;2023-07-31T14:48:08;27.80;22.50
1025;DHT22;501;48.214;11.350;2023-07-31T14:50:34;27.60;23.30
1025;DHT22;501;48.214;11.350;2023-07-31T14:53:00;27.40;23.30
1025;DHT22;501;48.214;11.350;2023-07-31T14:55:26;27.20;24.20
1025;DHT22;501;48.214;11.350;2023-07-31T14:57:51;27.00;23.20
1025;DHT22;501;48.214;11.350;2023-07-31T15:00:17;26.80;24.30
1025;DHT22;501;48.214;11.350;2023-07-31T15:02:43;26.60;24.50
1025;DHT22;501;48.214;11.350;2023-07-31T15:05:08;26.40;26.20
1025;DHT22;501;48.214;11.350;2023-07-31T15:07:34;26.20;26.00
1025;DHT22;501;48.214;11.350;2023-07-31T15:10:04;26.00;26.80
1025;DHT22;501;48.214;11.350;2023-07-31T15:12:31;25.80;27.10
1025;DHT22;501;48.214;11.350;2023-07-31T15:14:56;25.60;27.00
1025;DHT22;501;48.214;11.350;2023-07-31T15:17:22;25.40;26.70
1025;DHT22;501;48.214;11.350;2023-07-31T15:19:48;25.20;26.80
1025;DHT22;501;48.214;11.350;2023-07-31T15:22:14;24.90;26.60
1025;DHT22;501;48.214;11.350;2023-07-31T15:24:39;24.70;26.50
1025;DHT22;501;48.214;11.350;2023-07-31T15:27:05;24.50;26.40
1025;DHT22;501;48.214;11.350;2023-07-31T15:29:31;24.30;27.70
1025;DHT22;501;48.214;11.350;2023-07-31T15:31:58;24.10;27.30
1025;DHT22;501;48.214;11.350;2023-07-31T15:34:24;24.00;27.60
1025;DHT22;501;48.214;11.350;2023-07-31T15:36:50;23.90;28.40
1025;DHT22;501;48.214;11.350;2023-07-31T15:39:15;23.80;29.60
1025;DHT22;501;48.214;11.350;2023-07-31T15:41:41;23.70;29.70
1025;DHT22;501;48.214;11.350;2023-07-31T15:44:07;23.60;29.90
1025;DHT22;501;48.214;11.350;2023-07-31T15:46:33;23.40;29.80
1025;DHT22;501;48.214;11.350;2023-07-31T15:48:59;23.40;30.40
1025;DHT22;501;48.214;11.350;2023-07-31T15:51:25;23.30;30.50
1025;DHT22;501;48.214;11.350;2023-07-31T15:53:51;23.20;29.90
1025;DHT22;501;48.214;11.350;2023-07-31T15:56:17;23.20;29.80
1025;DHT22;501;48.214;11.350;2023-07-31T15:58:43;23.10;29.70
1025;DHT22;501;48.214;11.350;2023-07-31T16:01:09;23.10;30.00
1025;DHT22;501;48.214;11.350;2023-07-31T16:03:34;23.10;30.00
1025;DHT22;501;48.214;11.350;2023-07-31T16:06:00;23.10;31.20
1025;DHT22;501;48.214;11.350;2023-07-31T16:08:26;23.20;31.20